sensor_id;sensor_type;location;lat;lon;timestamp;pressure;altitude;pressure_sealevel;temperature;humidity
22653;BME280;11493;43.344;26.226;2022-12-15T00:01:26;98435.06;;;7.81;95.45
22653;BME280;11493;43.344;26.226;2022-12-15T00:04:13;98422.50;;;7.80;95.75
22653;BME280;11493;43.344;26.226;2022-12-15T00:06:58;98440.72;;;7.94;95.39
22653;BME280;11493;43.344;26.226;2022-12-15T00:09:44;98444.91;;;7.91;95.79
22653;BME280;11493;43.344;26.226;2022-12-15T00:12:30;98435.88;;;7.90;96.98
22653;BME280;11493;43.344;26.226;2022-12-15T00:15:15;98434.72;;;7.83;98.33
22653;BME280;11493;43.344;26.226;2022-12-15T00:18:05;98451.81;;;7.80;100.00
22653;BME280;11493;43.344;26.226;2022-12-15T00:20:51;98450.81;;;7.76;100.00
22653;BME280;11493;43.344;26.226;2022-12-15T00:23:41;98434.38;;;7.76;100.00
22653;BME280;11493;43.344;26.226;2022-12-15T00:26:27;98436.66;;;7.82;100.00
22653;BME280;11493;43.344;26.226;2022-12-15T00:29:13;98443.91;;;7.78;100.00
22653;BME280;11493;43.344;26.226;2022-12-15T00:31:58;98440.47;;;7.64;100.00
22653;BME280;11493;43.344;26.226;2022-12-15T00:34:44;98448.06;;;7.67;100.00
22653;BME280;11493;43.344;26.226;2022-12-15T00:37:29;98443.50;;;7.54;100.00
22653;BME280;11493;43.344;26.226;2022-12-15T00:40:15;98437.88;;;7.59;100.00
22653;BME280;11493;43.344;26.226;2022-12-15T00:42:42;98446.25;;;7.63;100.00
22653;BME280;11493;43.344;26.226;2022-12-15T00:45:13;98426.75;;;7.55;100.00
22653;BME280;11493;43.344;26.226;2022-12-15T00:47:40;98446.44;;;7.66;100.00
22653;BME280;11493;43.344;26.226;2022-12-15T00:50:07;98435.50;;;7.66;100.00
22653;BME280;11493;43.344;26.226;2022-12-15T00:52:53;98440.66;;;7.68;100.00
22653;BME280;11493;43.344;26.226;2022-12-15T00:55:38;98430.66;;;7.63;100.00
22653;BME280;11493;43.344;26.226;2022-12-15T00:58:24;98419.53;;;7.59;100.00
22653;BME280;11493;43.344;26.226;2022-12-15T01:01:10;98430.00;;;7.66;100.00
22653;BME280;11493;43.344;26.226;2022-12-15T01:03:55;98420.97;;;7.57;100.00
22653;BME280;11493;43.344;26.226;2022-12-15T01:06:42;98426.59;;;7.61;100.00
22653;BME280;11493;43.344;26.226;2022-12-15T01:09:28;98433.06;;;7.65;100.00
22653;BME280;11493;43.344;26.226;2022-12-15T01:12:13;98435.31;;;7.63;100.00
22653;BME280;11493;43.344;26.226;2022-12-15T01:14:59;98437.72;;;7.64;100.00
22653;BME280;11493;43.344;26.226;2022-12-15T01:17:49;98433.66;;;7.53;100.00
22653;BME280;11493;43.344;26.226;2022-12-15T01:20:35;98445.91;;;7.55;100.00
22653;BME280;11493;43.344;26.226;2022-12-15T01:23:03;98441.53;;;7.46;100.00
22653;BME280;11493;43.344;26.226;2022-12-15T01:25:31;98425.72;;;7.34;100.00
22653;BME280;11493;43.344;26.226;2022-12-15T01:27:59;98434.13;;;7.38;100.00
22653;BME280;11493;43.344;26.226;2022-12-15T01:30:26;98446.69;;;7.39;100.00
22653;BME280;11493;43.344;26.226;2022-12-15T01:32:54;98438.59;;;7.34;100.00
22653;BME280;11493;43.344;26.226;2022-12-15T01:35:21;98423.28;;;7.24;100.00
22653;BME280;11493;43.344;26.226;2022-12-15T01:37:48;98447.13;;;7.32;100.00
22653;BME280;11493;43.344;26.226;2022-12-15T01:40:18;98432.78;;;7.27;100.00
22653;BME280;11493;43.344;26.226;2022-12-15T01:43:11;98427.81;;;7.29;100.00
22653;BME280;11493;43.344;26.226;2022-12-15T01:46:06;98428.91;;;7.28;100.00
22653;BME280;11493;43.344;26.226;2022-12-15T01:54:04;98424.38;;;7.23;100.00
22653;BME280;11493;43.344;26.226;2022-12-15T01:57:44;98428.88;;;7.19;100.00
22653;BME280;11493;43.344;26.226;2022-12-15T02:00:15;98432.25;;;7.16;100.00
22653;BME280;11493;43.344;26.226;2022-12-15T02:02:50;98428.19;;;7.13;100.00
22653;BME280;11493;43.344;26.226;2022-12-15T02:05:19;98425.28;;;7.10;100.00
22653;BME280;11493;43.344;26.226;2022-12-15T02:07:54;98408.84;;;7.01;100.00
22653;BME280;11493;43.344;26.226;2022-12-15T02:10:28;98409.81;;;7.05;100.00
22653;BME280;11493;43.344;26.226;2022-12-15T02:21:46;98399.16;;;6.95;100.00
22653;BME280;11493;43.344;26.226;2022-12-15T02:30:39;98378.97;;;6.82;100.00
22653;BME280;11493;43.344;26.226;2022-12-15T02:33:19;98380.41;;;6.80;100.00
22653;BME280;11493;43.344;26.226;2022-12-15T02:38:38;98394.81;;;6.72;100.00
22653;BME280;11493;43.344;26.226;2022-12-15T02:43:54;98377.09;;;6.61;100.00
22653;BME280;11493;43.344;26.226;2022-12-15T02:49:33;98380.50;;;6.66;100.00
22653;BME280;11493;43.344;26.226;2022-12-15T02:55:45;98382.06;;;6.58;100.00
22653;BME280;11493;43.344;26.226;2022-12-15T02:58:48;98363.88;;;6.54;100.00
22653;BME280;11493;43.344;26.226;2022-12-15T03:01:33;98375.09;;;6.52;100.00
22653;BME280;11493;43.344;26.226;2022-12-15T03:04:08;98369.34;;;6.54;100.00
22653;BME280;11493;43.344;26.226;2022-12-15T03:06:37;98382.19;;;6.53;100.00
22653;BME280;11493;43.344;26.226;2022-12-15T03:09:05;98386.03;;;6.52;100.00
22653;BME280;11493;43.344;26.226;2022-12-15T03:11:41;98388.22;;;6.42;100.00
22653;BME280;11493;43.344;26.226;2022-12-15T03:14:08;98401.00;;;6.55;100.00
22653;BME280;11493;43.344;26.226;2022-12-15T03:16:35;98375.97;;;6.39;100.00
22653;BME280;11493;43.344;26.226;2022-12-15T03:19:02;98387.09;;;6.43;100.00
22653;BME280;11493;43.344;26.226;2022-12-15T03:21:32;98371.38;;;6.26;100.00
22653;BME280;11493;43.344;26.226;2022-12-15T03:23:59;98406.34;;;6.38;100.00
22653;BME280;11493;43.344;26.226;2022-12-15T03:26:26;98393.97;;;6.40;100.00
22653;BME280;11493;43.344;26.226;2022-12-15T03:28:54;98382.06;;;6.36;100.00
22653;BME280;11493;43.344;26.226;2022-12-15T03:31:21;98387.72;;;6.40;100.00
22653;BME280;11493;43.344;26.226;2022-12-15T03:33:48;98389.31;;;6.41;100.00
22653;BME280;11493;43.344;26.226;2022-12-15T03:36:15;98380.31;;;6.40;100.00
22653;BME280;11493;43.344;26.226;2022-12-15T03:38:42;98364.75;;;6.41;100.00
22653;BME280;11493;43.344;26.226;2022-12-15T03:41:09;98377.34;;;6.50;100.00
22653;BME280;11493;43.344;26.226;2022-12-15T03:43:37;98371.88;;;6.50;100.00
22653;BME280;11493;43.344;26.226;2022-12-15T03:46:04;98379.75;;;6.52;100.00
22653;BME280;11493;43.344;26.226;2022-12-15T03:48:31;98387.03;;;6.56;100.00
22653;BME280;11493;43.344;26.226;2022-12-15T03:50:58;98382.88;;;6.59;100.00
22653;BME280;11493;43.344;26.226;2022-12-15T03:53:25;98387.03;;;6.56;100.00
22653;BME280;11493;43.344;26.226;2022-12-15T03:55:53;98378.72;;;6.62;100.00
22653;BME280;11493;43.344;26.226;2022-12-15T03:58:20;98380.06;;;6.50;100.00
22653;BME280;11493;43.344;26.226;2022-12-15T04:00:48;98393.50;;;6.61;100.00
22653;BME280;11493;43.344;26.226;2022-12-15T04:03:15;98400.91;;;6.69;100.00
22653;BME280;11493;43.344;26.226;2022-12-15T04:05:42;98404.00;;;6.67;100.00
22653;BME280;11493;43.344;26.226;2022-12-15T04:08:09;98411.22;;;6.72;100.00
22653;BME280;11493;43.344;26.226;2022-12-15T04:10:37;98404.94;;;6.71;100.00
22653;BME280;11493;43.344;26.226;2022-12-15T04:13:09;98410.72;;;6.70;100.00
22653;BME280;11493;43.344;26.226;2022-12-15T04:15:38;98413.16;;;6.71;100.00
22653;BME280;11493;43.344;26.226;2022-12-15T04:18:07;98411.50;;;6.62;100.00
22653;BME280;11493;43.344;26.226;2022-12-15T04:20:39;98430.63;;;6.62;100.00
22653;BME280;11493;43.344;26.226;2022-12-15T04:23:06;98422.13;;;6.63;100.00
22653;BME280;11493;43.344;26.226;2022-12-15T04:25:34;98423.75;;;6.64;100.00
22653;BME280;11493;43.344;26.226;2022-12-15T04:28:20;98419.81;;;6.56;100.00
22653;BME280;11493;43.344;26.226;2022-12-15T04:31:11;98422.63;;;6.65;100.00
22653;BME280;11493;43.344;26.226;2022-12-15T04:34:28;98417.91;;;6.57;100.00
22653;BME280;11493;43.344;26.226;2022-12-15T04:37:15;98408.91;;;6.56;100.00
22653;BME280;11493;43.344;26.226;2022-12-15T04:40:01;98421.94;;;6.59;100.00
22653;BME280;11493;43.344;26.226;2022-12-15T04:42:47;98416.78;;;6.58;100.00
22653;BME280;11493;43.344;26.226;2022-12-15T04:45:32;98422.38;;;6.53;100.00
22653;BME280;11493;43.344;26.226;2022-12-15T04:48:18;98436.41;;;6.60;100.00
22653;BME280;11493;43.344;26.226;2022-12-15T04:51:04;98432.38;;;6.57;100.00
22653;BME280;11493;43.344;26.226;2022-12-15T04:53:50;98447.03;;;6.62;100.00
22653;BME280;11493;43.344;26.226;2022-12-15T04:56:36;98440.69;;;6.52;100.00
22653;BME280;11493;43.344;26.226;2022-12-15T04:59:21;98463.38;;;6.53;100.00
22653;BME280;11493;43.344;26.226;2022-12-15T05:02:07;98453.47;;;6.43;100.00
22653;BME280;11493;43.344;26.226;2022-12-15T05:04:53;98477.75;;;6.45;100.00
22653;BME280;11493;43.344;26.226;2022-12-15T05:07:39;98491.72;;;6.43;100.00
22653;BME280;11493;43.344;26.226;2022-12-15T05:10:25;98494.47;;;6.43;100.00
22653;BME280;11493;43.344;26.226;2022-12-15T05:13:10;98508.34;;;6.33;100.00
22653;BME280;11493;43.344;26.226;2022-12-15T05:15:56;98527.47;;;6.33;100.00
22653;BME280;11493;43.344;26.226;2022-12-15T05:18:42;98540.94;;;6.30;100.00
22653;BME280;11493;43.344;26.226;2022-12-15T05:21:28;98557.72;;;6.37;100.00
22653;BME280;11493;43.344;26.226;2022-12-15T05:24:14;98557.03;;;6.17;100.00
22653;BME280;11493;43.344;26.226;2022-12-15T05:27:00;98571.81;;;6.03;100.00
22653;BME280;11493;43.344;26.226;2022-12-15T05:29:46;98569.03;;;5.75;100.00
22653;BME280;11493;43.344;26.226;2022-12-15T05:32:32;98599.47;;;5.69;100.00
22653;BME280;11493;43.344;26.226;2022-12-15T05:34:59;98571.72;;;5.48;100.00
22653;BME280;11493;43.344;26.226;2022-12-15T05:37:27;98604.38;;;5.53;100.00
22653;BME280;11493;43.344;26.226;2022-12-15T05:39:54;98622.53;;;5.44;100.00
22653;BME280;11493;43.344;26.226;2022-12-15T05:42:22;98630.06;;;5.33;100.00
22653;BME280;11493;43.344;26.226;2022-12-15T05:44:49;98641.03;;;5.14;100.00
22653;BME280;11493;43.344;26.226;2022-12-15T05:47:24;98644.88;;;4.94;100.00
22653;BME280;11493;43.344;26.226;2022-12-15T05:49:52;98648.88;;;4.59;100.00
22653;BME280;11493;43.344;26.226;2022-12-15T05:52:20;98669.69;;;4.50;100.00
22653;BME280;11493;43.344;26.226;2022-12-15T05:54:47;98678.88;;;4.36;100.00
22653;BME280;11493;43.344;26.226;2022-12-15T05:57:14;98676.84;;;4.22;100.00
22653;BME280;11493;43.344;26.226;2022-12-15T05:59:41;98699.16;;;4.24;100.00
22653;BME280;11493;43.344;26.226;2022-12-15T06:02:08;98704.56;;;4.01;100.00
22653;BME280;11493;43.344;26.226;2022-12-15T06:04:36;98703.47;;;4.02;100.00
22653;BME280;11493;43.344;26.226;2022-12-15T06:07:03;98714.34;;;4.02;100.00
22653;BME280;11493;43.344;26.226;2022-12-15T06:09:30;98713.81;;;4.00;100.00
22653;BME280;11493;43.344;26.226;2022-12-15T06:11:58;98713.25;;;4.03;100.00
22653;BME280;11493;43.344;26.226;2022-12-15T06:14:25;98706.84;;;3.88;100.00
22653;BME280;11493;43.344;26.226;2022-12-15T06:16:52;98724.81;;;3.89;100.00
22653;BME280;11493;43.344;26.226;2022-12-15T06:19:21;98720.03;;;3.76;100.00
22653;BME280;11493;43.344;26.226;2022-12-15T06:21:51;98735.22;;;3.82;100.00
22653;BME280;11493;43.344;26.226;2022-12-15T06:24:26;98737.13;;;3.82;100.00
22653;BME280;11493;43.344;26.226;2022-12-15T06:26:53;98696.34;;;3.48;100.00
22653;BME280;11493;43.344;26.226;2022-12-15T06:29:20;98739.03;;;3.81;100.00
22653;BME280;11493;43.344;26.226;2022-12-15T06:31:48;98736.31;;;3.81;100.00
22653;BME280;11493;43.344;26.226;2022-12-15T06:34:16;98741.66;;;3.91;100.00
22653;BME280;11493;43.344;26.226;2022-12-15T06:36:44;98729.16;;;3.90;100.00
22653;BME280;11493;43.344;26.226;2022-12-15T06:39:13;98743.56;;;3.91;100.00
22653;BME280;11493;43.344;26.226;2022-12-15T06:41:41;98756.91;;;3.92;100.00
22653;BME280;11493;43.344;26.226;2022-12-15T06:44:13;98714.19;;;3.59;100.00
22653;BME280;11493;43.344;26.226;2022-12-15T06:46:45;98759.75;;;3.77;100.00
22653;BME280;11493;43.344;26.226;2022-12-15T06:49:14;98769.28;;;3.75;100.00
22653;BME280;11493;43.344;26.226;2022-12-15T06:51:48;98754.94;;;3.69;100.00
22653;BME280;11493;43.344;26.226;2022-12-15T06:54:18;98766.81;;;3.78;100.00
22653;BME280;11493;43.344;26.226;2022-12-15T06:56:47;98764.13;;;3.73;100.00
22653;BME280;11493;43.344;26.226;2022-12-15T06:59:16;98770.88;;;3.81;100.00
22653;BME280;11493;43.344;26.226;2022-12-15T07:01:43;98778.66;;;3.92;100.00
22653;BME280;11493;43.344;26.226;2022-12-15T07:04:11;98776.50;;;3.89;100.00
22653;BME280;11493;43.344;26.226;2022-12-15T07:06:39;98788.47;;;3.93;100.00
22653;BME280;11493;43.344;26.226;2022-12-15T07:09:14;98789.22;;;3.99;100.00
22653;BME280;11493;43.344;26.226;2022-12-15T07:11:43;98805.84;;;3.97;100.00
22653;BME280;11493;43.344;26.226;2022-12-15T07:14:12;98814.19;;;4.11;100.00
22653;BME280;11493;43.344;26.226;2022-12-15T07:16:40;98815.56;;;4.09;100.00
22653;BME280;11493;43.344;26.226;2022-12-15T07:19:10;98809.53;;;4.12;100.00
22653;BME280;11493;43.344;26.226;2022-12-15T07:21:39;98826.38;;;4.19;100.00
22653;BME280;11493;43.344;26.226;2022-12-15T07:24:11;98831.78;;;4.24;100.00
22653;BME280;11493;43.344;26.226;2022-12-15T07:26:42;98832.25;;;3.97;100.00
22653;BME280;11493;43.344;26.226;2022-12-15T07:29:18;98829.03;;;3.90;100.00
22653;BME280;11493;43.344;26.226;2022-12-15T07:31:52;98847.78;;;3.96;100.00
22653;BME280;11493;43.344;26.226;2022-12-15T07:34:19;98849.63;;;4.01;100.00
22653;BME280;11493;43.344;26.226;2022-12-15T07:36:47;98853.66;;;4.09;100.00
22653;BME280;11493;43.344;26.226;2022-12-15T07:39:18;98859.78;;;3.90;100.00
22653;BME280;11493;43.344;26.226;2022-12-15T07:41:45;98862.44;;;4.01;100.00
22653;BME280;11493;43.344;26.226;2022-12-15T07:44:14;98854.28;;;4.01;100.00
22653;BME280;11493;43.344;26.226;2022-12-15T07:46:42;98856.06;;;4.15;100.00
22653;BME280;11493;43.344;26.226;2022-12-15T07:49:12;98863.47;;;4.10;100.00
22653;BME280;11493;43.344;26.226;2022-12-15T07:51:40;98874.38;;;4.05;100.00
22653;BME280;11493;43.344;26.226;2022-12-15T07:54:09;98881.59;;;3.85;100.00
22653;BME280;11493;43.344;26.226;2022-12-15T07:56:38;98875.81;;;3.97;100.00
22653;BME280;11493;43.344;26.226;2022-12-15T07:59:07;98878.31;;;3.88;100.00
22653;BME280;11493;43.344;26.226;2022-12-15T08:01:36;98888.53;;;4.07;100.00
22653;BME280;11493;43.344;26.226;2022-12-15T08:04:07;98894.72;;;4.17;100.00
22653;BME280;11493;43.344;26.226;2022-12-15T08:06:41;98901.81;;;4.13;100.00
22653;BME280;11493;43.344;26.226;2022-12-15T08:09:09;98898.47;;;4.26;100.00
22653;BME280;11493;43.344;26.226;2022-12-15T08:11:37;98905.25;;;4.29;100.00
22653;BME280;11493;43.344;26.226;2022-12-15T08:14:07;98912.25;;;4.40;100.00
22653;BME280;11493;43.344;26.226;2022-12-15T08:16:44;98923.09;;;4.45;100.00
22653;BME280;11493;43.344;26.226;2022-12-15T08:19:16;98924.50;;;4.43;100.00
22653;BME280;11493;43.344;26.226;2022-12-15T08:21:45;98913.25;;;4.15;100.00
22653;BME280;11493;43.344;26.226;2022-12-15T08:24:15;98915.00;;;3.96;100.00
22653;BME280;11493;43.344;26.226;2022-12-15T08:26:43;98942.00;;;3.87;100.00
22653;BME280;11493;43.344;26.226;2022-12-15T08:29:16;98950.22;;;3.72;100.00
22653;BME280;11493;43.344;26.226;2022-12-15T08:32:04;98958.38;;;3.77;100.00
22653;BME280;11493;43.344;26.226;2022-12-15T08:34:32;98948.66;;;3.66;100.00
22653;BME280;11493;43.344;26.226;2022-12-15T08:36:59;98952.94;;;3.77;100.00
22653;BME280;11493;43.344;26.226;2022-12-15T08:39:27;98936.72;;;3.57;100.00
22653;BME280;11493;43.344;26.226;2022-12-15T08:41:55;98953.97;;;3.86;100.00
22653;BME280;11493;43.344;26.226;2022-12-15T08:44:22;98940.41;;;3.76;100.00
22653;BME280;11493;43.344;26.226;2022-12-15T08:46:55;98938.72;;;3.90;100.00
22653;BME280;11493;43.344;26.226;2022-12-15T08:49:25;98940.13;;;3.83;100.00
22653;BME280;11493;43.344;26.226;2022-12-15T08:51:53;98930.03;;;3.83;100.00
22653;BME280;11493;43.344;26.226;2022-12-15T08:54:20;98929.19;;;3.88;100.00
22653;BME280;11493;43.344;26.226;2022-12-15T08:56:49;98925.13;;;3.85;100.00
22653;BME280;11493;43.344;26.226;2022-12-15T08:59:16;98929.94;;;4.04;100.00
22653;BME280;11493;43.344;26.226;2022-12-15T09:01:44;98930.16;;;4.12;100.00
22653;BME280;11493;43.344;26.226;2022-12-15T09:04:14;98932.72;;;4.33;100.00
22653;BME280;11493;43.344;26.226;2022-12-15T09:06:42;98931.38;;;4.30;100.00
22653;BME280;11493;43.344;26.226;2022-12-15T09:09:15;98918.75;;;4.44;100.00
22653;BME280;11493;43.344;26.226;2022-12-15T09:11:43;98915.44;;;4.47;100.00
22653;BME280;11493;43.344;26.226;2022-12-15T09:14:11;98922.47;;;4.53;100.00
22653;BME280;11493;43.344;26.226;2022-12-15T09:16:39;98913.25;;;4.49;100.00
22653;BME280;11493;43.344;26.226;2022-12-15T09:19:08;98914.16;;;4.69;100.00
22653;BME280;11493;43.344;26.226;2022-12-15T09:21:39;98919.09;;;4.67;100.00
22653;BME280;11493;43.344;26.226;2022-12-15T09:24:11;98916.03;;;4.73;100.00
22653;BME280;11493;43.344;26.226;2022-12-15T09:26:51;98900.81;;;4.67;100.00
22653;BME280;11493;43.344;26.226;2022-12-15T09:29:18;98901.34;;;4.69;100.00
22653;BME280;11493;43.344;26.226;2022-12-15T09:31:45;98900.25;;;4.70;100.00
22653;BME280;11493;43.344;26.226;2022-12-15T09:34:13;98888.91;;;4.58;100.00
22653;BME280;11493;43.344;26.226;2022-12-15T09:36:42;98876.13;;;4.58;100.00
22653;BME280;11493;43.344;26.226;2022-12-15T09:39:09;98903.03;;;4.94;100.00
22653;BME280;11493;43.344;26.226;2022-12-15T09:41:39;98913.50;;;5.11;100.00
22653;BME280;11493;43.344;26.226;2022-12-15T09:44:11;98913.78;;;5.09;100.00
22653;BME280;11493;43.344;26.226;2022-12-15T09:52:11;98901.00;;;5.28;100.00
22653;BME280;11493;43.344;26.226;2022-12-15T09:54:39;98906.28;;;5.44;100.00
22653;BME280;11493;43.344;26.226;2022-12-15T10:09:03;98901.78;;;5.96;100.00
22653;BME280;11493;43.344;26.226;2022-12-15T10:11:53;98893.09;;;5.93;100.00
22653;BME280;11493;43.344;26.226;2022-12-15T10:14:29;98907.63;;;5.89;100.00
22653;BME280;11493;43.344;26.226;2022-12-15T10:22:27;98915.34;;;5.82;100.00
22653;BME280;11493;43.344;26.226;2022-12-15T10:25:25;98922.63;;;5.91;100.00
22653;BME280;11493;43.344;26.226;2022-12-15T10:28:06;98917.34;;;5.95;100.00
22653;BME280;11493;43.344;26.226;2022-12-15T10:30:42;98932.34;;;5.98;100.00
22653;BME280;11493;43.344;26.226;2022-12-15T10:33:18;98926.72;;;6.08;100.00
22653;BME280;11493;43.344;26.226;2022-12-15T10:35:47;98928.34;;;6.28;100.00
22653;BME280;11493;43.344;26.226;2022-12-15T10:38:36;98941.28;;;6.41;100.00
22653;BME280;11493;43.344;26.226;2022-12-15T10:41:13;98942.69;;;6.38;100.00
22653;BME280;11493;43.344;26.226;2022-12-15T10:43:42;98938.44;;;6.65;100.00
22653;BME280;11493;43.344;26.226;2022-12-15T10:46:17;98939.56;;;6.77;100.00
22653;BME280;11493;43.344;26.226;2022-12-15T10:48:57;98926.19;;;6.76;100.00
22653;BME280;11493;43.344;26.226;2022-12-15T10:51:28;98940.00;;;6.84;100.00
22653;BME280;11493;43.344;26.226;2022-12-15T10:56:28;98941.91;;;7.16;99.92
22653;BME280;11493;43.344;26.226;2022-12-15T10:59:20;98926.59;;;6.69;98.69
22653;BME280;11493;43.344;26.226;2022-12-15T11:01:49;98906.31;;;6.56;99.72
22653;BME280;11493;43.344;26.226;2022-12-15T11:06:59;98916.28;;;6.66;99.84
22653;BME280;11493;43.344;26.226;2022-12-15T11:09:35;98923.66;;;6.66;100.00
22653;BME280;11493;43.344;26.226;2022-12-15T11:12:18;98932.88;;;6.70;99.64
22653;BME280;11493;43.344;26.226;2022-12-15T11:20:34;98941.63;;;6.85;100.00
22653;BME280;11493;43.344;26.226;2022-12-15T11:23:27;98941.03;;;6.88;99.88
22653;BME280;11493;43.344;26.226;2022-12-15T11:26:03;98936.84;;;6.77;100.00
22653;BME280;11493;43.344;26.226;2022-12-15T11:28:49;98931.66;;;6.76;100.00
22653;BME280;11493;43.344;26.226;2022-12-15T11:31:31;98926.84;;;6.86;100.00
22653;BME280;11493;43.344;26.226;2022-12-15T11:34:01;98929.91;;;6.99;100.00
22653;BME280;11493;43.344;26.226;2022-12-15T11:39:07;98935.44;;;7.40;98.16
22653;BME280;11493;43.344;26.226;2022-12-15T11:44:24;98936.56;;;7.39;97.32
22653;BME280;11493;43.344;26.226;2022-12-15T11:50:18;98935.00;;;7.46;97.80
22653;BME280;11493;43.344;26.226;2022-12-15T12:07:25;98959.13;;;7.85;99.00
22653;BME280;11493;43.344;26.226;2022-12-15T12:13:15;98960.56;;;7.97;97.84
22653;BME280;11493;43.344;26.226;2022-12-15T12:18:27;98960.56;;;7.97;97.81
22653;BME280;11493;43.344;26.226;2022-12-15T12:21:07;98975.84;;;8.11;97.86
22653;BME280;11493;43.344;26.226;2022-12-15T12:23:45;98958.81;;;8.14;97.84
22653;BME280;11493;43.344;26.226;2022-12-15T12:26:28;98965.22;;;8.32;96.53
22653;BME280;11493;43.344;26.226;2022-12-15T12:39:51;98975.66;;;8.57;90.32
22653;BME280;11493;43.344;26.226;2022-12-15T12:42:57;98981.25;;;8.97;92.59
22653;BME280;11493;43.344;26.226;2022-12-15T12:45:28;98987.81;;;10.98;83.82
22653;BME280;11493;43.344;26.226;2022-12-15T12:53:45;99000.31;;;12.89;73.84
22653;BME280;11493;43.344;26.226;2022-12-15T12:56:44;99004.44;;;12.83;72.00
22653;BME280;11493;43.344;26.226;2022-12-15T13:01:56;98998.91;;;11.36;75.62
22653;BME280;11493;43.344;26.226;2022-12-15T13:07:03;99001.63;;;10.06;80.83
22653;BME280;11493;43.344;26.226;2022-12-15T13:09:42;99010.78;;;9.45;82.62
22653;BME280;11493;43.344;26.226;2022-12-15T13:12:52;99018.03;;;8.96;85.81
22653;BME280;11493;43.344;26.226;2022-12-15T13:20:45;99037.47;;;8.14;91.61
22653;BME280;11493;43.344;26.226;2022-12-15T13:23:35;99035.22;;;8.02;91.98
22653;BME280;11493;43.344;26.226;2022-12-15T13:45:02;99069.81;;;7.24;98.57
22653;BME280;11493;43.344;26.226;2022-12-15T13:47:38;99069.97;;;7.14;98.93
22653;BME280;11493;43.344;26.226;2022-12-15T13:50:12;99071.69;;;7.10;99.49
22653;BME280;11493;43.344;26.226;2022-12-15T13:52:50;99077.06;;;7.15;99.37
22653;BME280;11493;43.344;26.226;2022-12-15T13:55:51;99084.03;;;7.08;99.31
22653;BME280;11493;43.344;26.226;2022-12-15T13:58:20;99089.28;;;7.04;99.75
22653;BME280;11493;43.344;26.226;2022-12-15T14:00:54;99092.41;;;6.98;99.92
22653;BME280;11493;43.344;26.226;2022-12-15T14:03:23;99088.19;;;6.86;100.00
22653;BME280;11493;43.344;26.226;2022-12-15T14:05:58;99079.03;;;6.77;100.00
22653;BME280;11493;43.344;26.226;2022-12-15T14:08:27;99068.97;;;6.73;100.00
22653;BME280;11493;43.344;26.226;2022-12-15T14:10:58;99070.59;;;6.74;100.00
22653;BME280;11493;43.344;26.226;2022-12-15T14:13:39;99071.34;;;6.61;100.00
22653;BME280;11493;43.344;26.226;2022-12-15T14:16:15;99077.13;;;6.59;100.00
22653;BME280;11493;43.344;26.226;2022-12-15T14:18:44;99083.47;;;6.54;100.00
22653;BME280;11493;43.344;26.226;2022-12-15T14:21:24;99096.09;;;6.50;100.00
22653;BME280;11493;43.344;26.226;2022-12-15T14:23:57;99078.03;;;6.31;100.00
22653;BME280;11493;43.344;26.226;2022-12-15T14:26:44;99086.31;;;6.25;100.00
22653;BME280;11493;43.344;26.226;2022-12-15T14:29:22;99107.34;;;6.25;100.00
22653;BME280;11493;43.344;26.226;2022-12-15T14:31:53;99094.38;;;6.12;100.00
22653;BME280;11493;43.344;26.226;2022-12-15T14:34:31;99106.34;;;6.16;100.00
22653;BME280;11493;43.344;26.226;2022-12-15T14:37:02;99107.34;;;6.01;100.00
22653;BME280;11493;43.344;26.226;2022-12-15T14:39:43;99121.34;;;5.94;100.00
22653;BME280;11493;43.344;26.226;2022-12-15T14:42:24;99125.22;;;5.88;100.00
22653;BME280;11493;43.344;26.226;2022-12-15T14:44:52;99111.91;;;5.82;100.00
22653;BME280;11493;43.344;26.226;2022-12-15T14:47:24;99116.59;;;5.76;100.00
22653;BME280;11493;43.344;26.226;2022-12-15T14:49:54;99125.13;;;5.70;100.00
22653;BME280;11493;43.344;26.226;2022-12-15T14:52:36;99123.25;;;5.65;100.00
22653;BME280;11493;43.344;26.226;2022-12-15T14:55:42;99126.00;;;5.65;100.00
22653;BME280;11493;43.344;26.226;2022-12-15T14:58:33;99126.56;;;5.62;100.00
22653;BME280;11493;43.344;26.226;2022-12-15T15:01:02;99133.69;;;5.58;100.00
22653;BME280;11493;43.344;26.226;2022-12-15T15:03:37;99126.38;;;5.53;100.00
22653;BME280;11493;43.344;26.226;2022-12-15T15:06:16;99104.06;;;5.46;100.00
22653;BME280;11493;43.344;26.226;2022-12-15T15:08:50;99118.50;;;5.47;100.00
22653;BME280;11493;43.344;26.226;2022-12-15T15:11:22;99130.56;;;5.41;100.00
22653;BME280;11493;43.344;26.226;2022-12-15T15:14:11;99124.13;;;5.26;100.00
22653;BME280;11493;43.344;26.226;2022-12-15T15:16:40;99146.50;;;5.28;100.00
22653;BME280;11493;43.344;26.226;2022-12-15T15:19:35;99148.22;;;5.19;100.00
22653;BME280;11493;43.344;26.226;2022-12-15T15:22:40;99150.94;;;5.19;100.00
22653;BME280;11493;43.344;26.226;2022-12-15T15:28:12;99141.50;;;5.07;100.00
22653;BME280;11493;43.344;26.226;2022-12-15T15:30:59;99146.69;;;5.03;100.00
22653;BME280;11493;43.344;26.226;2022-12-15T15:33:31;99155.44;;;5.00;100.00
22653;BME280;11493;43.344;26.226;2022-12-15T15:36:00;99129.66;;;4.82;100.00
22653;BME280;11493;43.344;26.226;2022-12-15T15:38:31;99153.63;;;4.85;100.00
22653;BME280;11493;43.344;26.226;2022-12-15T15:41:26;99170.00;;;4.80;100.00
22653;BME280;11493;43.344;26.226;2022-12-15T15:43:58;99170.84;;;4.76;100.00
22653;BME280;11493;43.344;26.226;2022-12-15T15:46:32;99152.88;;;4.70;100.00
22653;BME280;11493;43.344;26.226;2022-12-15T15:49:08;99164.84;;;4.74;100.00
22653;BME280;11493;43.344;26.226;2022-12-15T15:51:42;99163.78;;;4.70;100.00
22653;BME280;11493;43.344;26.226;2022-12-15T15:54:13;99149.66;;;4.57;100.00
22653;BME280;11493;43.344;26.226;2022-12-15T15:56:41;99139.91;;;4.46;100.00